UAL475 CYEG-KDEN
Flight info
| Callsign | UAL475 |
|---|---|
| Flight time | 2h 8m |
| Altitude | 37000 |
| Route | MIPOT1 UKRAM Q957 VOBUK GTF TOFUU FLATI5 |
| Aircraft | A320/M-VGDW/C |
Departure
| Time | 2026-05-04 20:22 |
|---|---|
| Airport | Edmonton International Airport (CYEG) |
Arrival
| Time | 2026-05-04 22:30 |
|---|---|
| Airport | Denver International Airport (KDEN) |
| Time | Latitude | Longitude | Altitude | Speed | Heading |
|---|---|---|---|---|---|
| 2026-05-04 20:10 | 53.30339 | -113.57705 | 2354 ft | 0 kts | 185° |
| 2026-05-04 20:12 | 53.30337 | -113.57705 | 2354 ft | 1 kts | 185° |
| 2026-05-04 20:12 | 53.30319 | -113.57708 | 2354 ft | 4 kts | 185° |
| 2026-05-04 20:12 | 53.30281 | -113.57714 | 2354 ft | 7 kts | 187° |
| 2026-05-04 20:13 | 53.30205 | -113.57759 | 2354 ft | 15 kts | 207° |
| 2026-05-04 20:13 | 53.30102 | -113.57842 | 2354 ft | 18 kts | 201° |
| 2026-05-04 20:13 | 53.29986 | -113.57908 | 2354 ft | 14 kts | 202° |
| 2026-05-04 20:13 | 53.29906 | -113.57890 | 2354 ft | 14 kts | 136° |
| 2026-05-04 20:14 | 53.29822 | -113.57753 | 2354 ft | 19 kts | 134° |
| 2026-05-04 20:14 | 53.29725 | -113.57585 | 2353 ft | 22 kts | 135° |
| 2026-05-04 20:14 | 53.29612 | -113.57395 | 2352 ft | 24 kts | 135° |
| 2026-05-04 20:14 | 53.29485 | -113.57184 | 2351 ft | 27 kts | 135° |
| 2026-05-04 20:15 | 53.29346 | -113.56955 | 2350 ft | 29 kts | 135° |
| 2026-05-04 20:15 | 53.29197 | -113.56705 | 2349 ft | 31 kts | 136° |
| 2026-05-04 20:15 | 53.29042 | -113.56447 | 2348 ft | 31 kts | 135° |
| 2026-05-04 20:15 | 53.28924 | -113.56259 | 2347 ft | 21 kts | 152° |
| 2026-05-04 20:16 | 53.28792 | -113.56240 | 2347 ft | 8 kts | 184° |
| 2026-05-04 20:16 | 53.28790 | -113.56240 | 2347 ft | 0 kts | 184° |
| 2026-05-04 20:19 | 53.28787 | -113.56240 | 2347 ft | 3 kts | 184° |
| 2026-05-04 20:19 | 53.28739 | -113.56264 | 2347 ft | 10 kts | 208° |
| 2026-05-04 20:20 | 53.28699 | -113.56351 | 2347 ft | 11 kts | 277° |
| 2026-05-04 20:20 | 53.28755 | -113.56440 | 2348 ft | 12 kts | 313° |
| 2026-05-04 20:20 | 53.28760 | -113.56450 | 2348 ft | 0 kts | 312° |
| 2026-05-04 20:20 | 53.28763 | -113.56455 | 2348 ft | 2 kts | 313° |
| 2026-05-04 20:21 | 53.28825 | -113.56558 | 2347 ft | 39 kts | 315° |
| 2026-05-04 20:21 | 53.29180 | -113.57150 | 2351 ft | 102 kts | 315° |
| 2026-05-04 20:21 | 53.30565 | -113.59353 | 2913 ft | 146 kts | 319° |
| 2026-05-04 20:22 | 53.31276 | -113.60564 | 3597 ft | 145 kts | 318° |
| 2026-05-04 20:22 | 53.31977 | -113.61770 | 4182 ft | 146 kts | 316° |
| 2026-05-04 20:22 | 53.32428 | -113.63430 | 4466 ft | 177 kts | 277° |
| 2026-05-04 20:22 | 53.32064 | -113.65559 | 4738 ft | 212 kts | 239° |
| 2026-05-04 20:23 | 53.30866 | -113.67275 | 5122 ft | 243 kts | 213° |
| 2026-05-04 20:23 | 53.29236 | -113.68489 | 5597 ft | 271 kts | 200° |
| 2026-05-04 20:23 | 53.27381 | -113.69427 | 6299 ft | 283 kts | 199° |
| 2026-05-04 20:23 | 53.25477 | -113.70366 | 7186 ft | 287 kts | 199° |
| 2026-05-04 20:24 | 53.23546 | -113.71310 | 8022 ft | 292 kts | 199° |
| 2026-05-04 20:24 | 53.21575 | -113.72275 | 8831 ft | 298 kts | 199° |
| 2026-05-04 20:24 | 53.19570 | -113.73257 | 9649 ft | 302 kts | 199° |
| 2026-05-04 20:24 | 53.17516 | -113.74264 | 10273 ft | 316 kts | 200° |
| 2026-05-04 20:25 | 53.15332 | -113.75341 | 10548 ft | 339 kts | 200° |
| 2026-05-04 20:25 | 53.12999 | -113.76492 | 10897 ft | 358 kts | 200° |
| 2026-05-04 20:25 | 53.10583 | -113.77664 | 11534 ft | 364 kts | 200° |
| 2026-05-04 20:25 | 53.08131 | -113.78850 | 12184 ft | 370 kts | 200° |
| 2026-05-04 20:26 | 53.05639 | -113.80060 | 12825 ft | 376 kts | 200° |
| 2026-05-04 20:26 | 53.03147 | -113.81270 | 13477 ft | 380 kts | 201° |
| 2026-05-04 20:26 | 53.00565 | -113.82523 | 14128 ft | 385 kts | 201° |
| 2026-05-04 20:26 | 52.98006 | -113.83769 | 14750 ft | 390 kts | 201° |
| 2026-05-04 20:27 | 52.95391 | -113.85039 | 15366 ft | 394 kts | 202° |
| 2026-05-04 20:27 | 52.92743 | -113.86323 | 15950 ft | 399 kts | 202° |
| 2026-05-04 20:27 | 52.90066 | -113.87620 | 16525 ft | 403 kts | 202° |
| 2026-05-04 20:27 | 52.87365 | -113.88930 | 17102 ft | 407 kts | 203° |
| 2026-05-04 20:28 | 52.84636 | -113.90251 | 17670 ft | 411 kts | 203° |
| 2026-05-04 20:28 | 52.81869 | -113.91585 | 18256 ft | 415 kts | 203° |
| 2026-05-04 20:28 | 52.79084 | -113.92923 | 18828 ft | 420 kts | 203° |
| 2026-05-04 20:28 | 52.76257 | -113.94277 | 19358 ft | 425 kts | 203° |
| 2026-05-04 20:29 | 52.73377 | -113.95598 | 19890 ft | 432 kts | 202° |
| 2026-05-04 20:29 | 52.70454 | -113.96871 | 20438 ft | 438 kts | 202° |
| 2026-05-04 20:29 | 52.67483 | -113.98124 | 20932 ft | 444 kts | 201° |
| 2026-05-04 20:29 | 52.64471 | -113.99378 | 21428 ft | 448 kts | 201° |
| 2026-05-04 20:30 | 52.61429 | -114.00647 | 21900 ft | 453 kts | 201° |
| 2026-05-04 20:30 | 52.58355 | -114.01940 | 22347 ft | 459 kts | 202° |
| 2026-05-04 20:30 | 52.55246 | -114.03264 | 22772 ft | 464 kts | 202° |
| 2026-05-04 20:30 | 52.52110 | -114.04609 | 23214 ft | 468 kts | 202° |
| 2026-05-04 20:31 | 52.48979 | -114.05954 | 23634 ft | 473 kts | 202° |
| 2026-05-04 20:31 | 52.45782 | -114.07323 | 24053 ft | 478 kts | 202° |
| 2026-05-04 20:31 | 52.42546 | -114.08704 | 24452 ft | 482 kts | 202° |
| 2026-05-04 20:31 | 52.39292 | -114.10087 | 24878 ft | 485 kts | 202° |
| 2026-05-04 20:32 | 52.36005 | -114.11479 | 25295 ft | 488 kts | 202° |
| 2026-05-04 20:32 | 52.32707 | -114.12871 | 25702 ft | 491 kts | 202° |
| 2026-05-04 20:32 | 52.29385 | -114.14269 | 26076 ft | 495 kts | 202° |
| 2026-05-04 20:32 | 52.26044 | -114.15674 | 26458 ft | 497 kts | 202° |
| 2026-05-04 20:33 | 52.22681 | -114.17087 | 26830 ft | 500 kts | 202° |
| 2026-05-04 20:33 | 52.19304 | -114.18505 | 27192 ft | 503 kts | 202° |
| 2026-05-04 20:33 | 52.17054 | -114.19450 | 27437 ft | 504 kts | 202° |
| 2026-05-04 20:33 | 52.13646 | -114.20883 | 27808 ft | 507 kts | 202° |
| 2026-05-04 20:34 | 52.10224 | -114.22325 | 28179 ft | 509 kts | 202° |
| 2026-05-04 20:34 | 52.06784 | -114.23776 | 28523 ft | 511 kts | 202° |
| 2026-05-04 20:34 | 52.03329 | -114.25229 | 28841 ft | 514 kts | 202° |
| 2026-05-04 20:34 | 51.99856 | -114.26680 | 29165 ft | 517 kts | 201° |
| 2026-05-04 20:35 | 51.96355 | -114.28135 | 29493 ft | 519 kts | 201° |
| 2026-05-04 20:35 | 51.92850 | -114.29584 | 29813 ft | 522 kts | 201° |
| 2026-05-04 20:35 | 51.89324 | -114.31043 | 30125 ft | 524 kts | 201° |
| 2026-05-04 20:35 | 51.85786 | -114.32508 | 30443 ft | 526 kts | 201° |
| 2026-05-04 20:36 | 51.82236 | -114.33978 | 30776 ft | 527 kts | 201° |
| 2026-05-04 20:36 | 51.78661 | -114.35333 | 31194 ft | 531 kts | 196° |
| 2026-05-04 20:36 | 51.74969 | -114.35978 | 31597 ft | 538 kts | 186° |
| 2026-05-04 20:36 | 51.71214 | -114.35753 | 31983 ft | 543 kts | 176° |
| 2026-05-04 20:37 | 51.67486 | -114.34654 | 32357 ft | 547 kts | 167° |
| 2026-05-04 20:37 | 51.63867 | -114.32708 | 32739 ft | 548 kts | 158° |
| 2026-05-04 20:37 | 51.60398 | -114.30381 | 33116 ft | 548 kts | 157° |
| 2026-05-04 20:37 | 51.56877 | -114.28026 | 33470 ft | 548 kts | 157° |
| 2026-05-04 20:38 | 51.53355 | -114.25680 | 33843 ft | 548 kts | 158° |
| 2026-05-04 20:38 | 51.49835 | -114.23343 | 34229 ft | 547 kts | 158° |
| 2026-05-04 20:38 | 51.46314 | -114.21010 | 34622 ft | 546 kts | 158° |
| 2026-05-04 20:38 | 51.42802 | -114.18688 | 35033 ft | 545 kts | 158° |
| 2026-05-04 20:39 | 51.39305 | -114.16375 | 35462 ft | 542 kts | 158° |
| 2026-05-04 20:39 | 51.35815 | -114.14065 | 35871 ft | 540 kts | 158° |
| 2026-05-04 20:39 | 51.32347 | -114.11777 | 36264 ft | 538 kts | 158° |
| 2026-05-04 20:39 | 51.28889 | -114.09504 | 36632 ft | 536 kts | 158° |
| 2026-05-04 20:40 | 51.25447 | -114.07246 | 36972 ft | 534 kts | 158° |
| 2026-05-04 20:40 | 51.22017 | -114.05001 | 37081 ft | 532 kts | 158° |
| 2026-05-04 20:40 | 51.15205 | -114.00555 | 37104 ft | 526 kts | 158° |
| 2026-05-04 20:41 | 51.08489 | -113.96171 | 37096 ft | 524 kts | 158° |
| 2026-05-04 20:41 | 51.01745 | -113.91784 | 37106 ft | 523 kts | 158° |
| 2026-05-04 20:42 | 50.95014 | -113.87424 | 37098 ft | 523 kts | 158° |
| 2026-05-04 20:42 | 50.88278 | -113.83094 | 37102 ft | 522 kts | 158° |
| 2026-05-04 20:43 | 50.81561 | -113.78774 | 37099 ft | 520 kts | 158° |
| 2026-05-04 20:43 | 50.74840 | -113.74451 | 37101 ft | 521 kts | 158° |
| 2026-05-04 20:44 | 50.68118 | -113.70143 | 37099 ft | 521 kts | 158° |
| 2026-05-04 20:44 | 50.61344 | -113.66102 | 37094 ft | 521 kts | 162° |
| 2026-05-04 20:45 | 50.54498 | -113.62602 | 37095 ft | 521 kts | 163° |
| 2026-05-04 20:45 | 50.47591 | -113.59196 | 37099 ft | 520 kts | 163° |
| 2026-05-04 20:46 | 50.40710 | -113.55647 | 37104 ft | 520 kts | 162° |
| 2026-05-04 20:46 | 50.33852 | -113.52018 | 37110 ft | 520 kts | 162° |
| 2026-05-04 20:47 | 50.26990 | -113.48416 | 37112 ft | 520 kts | 162° |
| 2026-05-04 20:47 | 50.20116 | -113.44860 | 37108 ft | 521 kts | 163° |
| 2026-05-04 20:48 | 50.13238 | -113.41327 | 37109 ft | 520 kts | 162° |
| 2026-05-04 20:48 | 50.06355 | -113.37786 | 37098 ft | 520 kts | 162° |
| 2026-05-04 20:49 | 49.99473 | -113.34249 | 37107 ft | 520 kts | 163° |
| 2026-05-04 20:49 | 49.92601 | -113.30736 | 37115 ft | 520 kts | 163° |
| 2026-05-04 20:50 | 49.85736 | -113.27241 | 37119 ft | 519 kts | 163° |
| 2026-05-04 20:50 | 49.78887 | -113.23758 | 37118 ft | 518 kts | 162° |
| 2026-05-04 20:51 | 49.72063 | -113.20183 | 37116 ft | 518 kts | 158° |
| 2026-05-04 20:51 | 49.65691 | -113.15166 | 37111 ft | 517 kts | 151° |
| 2026-05-04 20:52 | 49.59357 | -113.09912 | 37108 ft | 516 kts | 151° |
| 2026-05-04 20:52 | 49.53021 | -113.04699 | 37106 ft | 516 kts | 151° |
| 2026-05-04 20:53 | 49.46686 | -112.99492 | 37102 ft | 516 kts | 151° |
| 2026-05-04 20:53 | 49.40360 | -112.94297 | 37106 ft | 515 kts | 151° |
| 2026-05-04 20:54 | 49.34034 | -112.89124 | 37105 ft | 515 kts | 152° |
| 2026-05-04 20:54 | 49.27701 | -112.83974 | 37101 ft | 515 kts | 152° |
| 2026-05-04 20:55 | 49.21372 | -112.78832 | 37106 ft | 515 kts | 152° |
| 2026-05-04 20:55 | 49.15037 | -112.73687 | 37108 ft | 515 kts | 152° |
| 2026-05-04 20:56 | 49.08708 | -112.68567 | 37112 ft | 514 kts | 152° |
| 2026-05-04 20:56 | 49.02383 | -112.63470 | 37108 ft | 514 kts | 152° |
| 2026-05-04 20:57 | 48.96066 | -112.58406 | 37113 ft | 513 kts | 152° |
| 2026-05-04 20:57 | 48.89791 | -112.53391 | 37113 ft | 513 kts | 152° |
| 2026-05-04 20:58 | 48.83480 | -112.48342 | 37104 ft | 512 kts | 152° |
| 2026-05-04 20:58 | 48.77178 | -112.43310 | 37114 ft | 511 kts | 152° |
| 2026-05-04 20:59 | 48.70887 | -112.38314 | 37119 ft | 510 kts | 152° |
| 2026-05-04 20:59 | 48.64593 | -112.33337 | 37116 ft | 510 kts | 152° |
| 2026-05-04 21:00 | 48.58301 | -112.28377 | 37119 ft | 510 kts | 152° |
| 2026-05-04 21:00 | 48.52019 | -112.23428 | 37117 ft | 509 kts | 153° |
| 2026-05-04 21:01 | 48.45743 | -112.18495 | 37120 ft | 508 kts | 153° |
| 2026-05-04 21:01 | 48.39512 | -112.13606 | 37126 ft | 508 kts | 153° |
| 2026-05-04 21:02 | 48.33244 | -112.08707 | 37131 ft | 507 kts | 153° |
| 2026-05-04 21:02 | 48.26978 | -112.03825 | 37128 ft | 507 kts | 153° |
| 2026-05-04 21:03 | 48.20718 | -111.98978 | 37125 ft | 506 kts | 153° |
| 2026-05-04 21:03 | 48.14454 | -111.94129 | 37127 ft | 506 kts | 153° |
| 2026-05-04 21:04 | 48.08197 | -111.89297 | 37126 ft | 506 kts | 153° |
| 2026-05-04 21:04 | 48.01942 | -111.84469 | 37120 ft | 506 kts | 153° |
| 2026-05-04 21:05 | 47.95691 | -111.79656 | 37118 ft | 505 kts | 153° |
| 2026-05-04 21:05 | 47.89436 | -111.74870 | 37114 ft | 505 kts | 153° |
| 2026-05-04 21:06 | 47.83226 | -111.70142 | 37110 ft | 505 kts | 153° |
| 2026-05-04 21:06 | 47.76967 | -111.65379 | 37109 ft | 505 kts | 153° |
| 2026-05-04 21:07 | 47.70726 | -111.60631 | 37111 ft | 504 kts | 153° |
| 2026-05-04 21:07 | 47.64480 | -111.55897 | 37101 ft | 503 kts | 154° |
| 2026-05-04 21:08 | 47.58244 | -111.51191 | 37107 ft | 502 kts | 154° |
| 2026-05-04 21:08 | 47.52015 | -111.46495 | 37106 ft | 502 kts | 154° |
| 2026-05-04 21:09 | 47.45798 | -111.41818 | 37107 ft | 501 kts | 154° |
| 2026-05-04 21:09 | 47.39579 | -111.37186 | 37102 ft | 500 kts | 154° |
| 2026-05-04 21:10 | 47.33364 | -111.32597 | 37099 ft | 499 kts | 154° |
| 2026-05-04 21:10 | 47.27194 | -111.28067 | 37096 ft | 498 kts | 155° |
| 2026-05-04 21:11 | 47.21005 | -111.23525 | 37098 ft | 497 kts | 155° |
| 2026-05-04 21:11 | 47.14785 | -111.18967 | 37092 ft | 495 kts | 155° |
| 2026-05-04 21:12 | 47.08664 | -111.14483 | 37091 ft | 495 kts | 155° |
| 2026-05-04 21:12 | 47.02505 | -111.09991 | 37087 ft | 494 kts | 155° |
| 2026-05-04 21:13 | 46.96355 | -111.05525 | 37087 ft | 493 kts | 155° |
| 2026-05-04 21:13 | 46.90218 | -111.01075 | 37078 ft | 493 kts | 155° |
| 2026-05-04 21:14 | 46.84060 | -110.96613 | 37052 ft | 494 kts | 155° |
| 2026-05-04 21:14 | 46.77889 | -110.92157 | 37046 ft | 495 kts | 155° |
| 2026-05-04 21:15 | 46.71701 | -110.87711 | 37049 ft | 496 kts | 155° |
| 2026-05-04 21:15 | 46.65514 | -110.83268 | 37058 ft | 496 kts | 155° |
| 2026-05-04 21:16 | 46.59376 | -110.78853 | 37058 ft | 496 kts | 155° |
| 2026-05-04 21:16 | 46.53189 | -110.74434 | 37060 ft | 495 kts | 156° |
| 2026-05-04 21:17 | 46.47001 | -110.70039 | 37063 ft | 495 kts | 156° |
| 2026-05-04 21:17 | 46.40818 | -110.65649 | 37068 ft | 494 kts | 156° |
| 2026-05-04 21:18 | 46.34646 | -110.61274 | 37070 ft | 494 kts | 156° |
| 2026-05-04 21:18 | 46.28477 | -110.56901 | 37068 ft | 493 kts | 156° |
| 2026-05-04 21:19 | 46.22315 | -110.52554 | 37066 ft | 492 kts | 156° |
| 2026-05-04 21:19 | 46.16148 | -110.48230 | 37068 ft | 492 kts | 156° |
| 2026-05-04 21:20 | 46.09991 | -110.43913 | 37072 ft | 491 kts | 156° |
| 2026-05-04 21:20 | 46.03842 | -110.39608 | 37077 ft | 491 kts | 156° |
| 2026-05-04 21:21 | 45.97742 | -110.35345 | 37077 ft | 490 kts | 156° |
| 2026-05-04 21:21 | 45.91620 | -110.31069 | 37078 ft | 489 kts | 156° |
| 2026-05-04 21:22 | 45.85503 | -110.26811 | 37080 ft | 489 kts | 157° |
| 2026-05-04 21:22 | 45.79386 | -110.22578 | 37082 ft | 488 kts | 157° |
| 2026-05-04 21:23 | 45.73270 | -110.18361 | 37084 ft | 488 kts | 157° |
| 2026-05-04 21:23 | 45.67155 | -110.14146 | 37084 ft | 488 kts | 157° |
| 2026-05-04 21:24 | 45.62075 | -110.10643 | 37081 ft | 488 kts | 157° |
| 2026-05-04 21:24 | 45.55960 | -110.06454 | 37077 ft | 488 kts | 157° |
| 2026-05-04 21:25 | 45.49849 | -110.02275 | 37074 ft | 487 kts | 157° |
| 2026-05-04 21:25 | 45.43746 | -109.98100 | 37073 ft | 487 kts | 157° |
| 2026-05-04 21:26 | 45.37637 | -109.93937 | 37072 ft | 486 kts | 157° |
| 2026-05-04 21:26 | 45.31539 | -109.89779 | 37070 ft | 486 kts | 158° |
| 2026-05-04 21:27 | 45.25451 | -109.85646 | 37070 ft | 485 kts | 158° |
| 2026-05-04 21:27 | 45.19365 | -109.81531 | 37063 ft | 484 kts | 158° |
| 2026-05-04 21:28 | 45.13286 | -109.77435 | 37061 ft | 483 kts | 158° |
| 2026-05-04 21:28 | 45.07259 | -109.73376 | 37057 ft | 482 kts | 158° |
| 2026-05-04 21:29 | 45.01204 | -109.69306 | 37056 ft | 482 kts | 158° |
| 2026-05-04 21:29 | 44.95150 | -109.65253 | 37048 ft | 481 kts | 158° |
| 2026-05-04 21:30 | 44.89109 | -109.61217 | 37046 ft | 480 kts | 158° |
| 2026-05-04 21:30 | 44.83085 | -109.57176 | 37038 ft | 479 kts | 158° |
| 2026-05-04 21:31 | 44.74055 | -109.51180 | 37027 ft | 478 kts | 159° |
| 2026-05-04 21:32 | 44.68048 | -109.47204 | 37031 ft | 477 kts | 159° |
| 2026-05-04 21:32 | 44.62041 | -109.43227 | 37023 ft | 477 kts | 159° |
| 2026-05-04 21:33 | 44.56046 | -109.39256 | 37024 ft | 476 kts | 159° |
| 2026-05-04 21:33 | 44.50049 | -109.35312 | 37021 ft | 476 kts | 159° |
| 2026-05-04 21:34 | 44.44102 | -109.31393 | 37019 ft | 475 kts | 159° |
| 2026-05-04 21:34 | 44.38125 | -109.27456 | 37018 ft | 475 kts | 159° |
| 2026-05-04 21:35 | 44.32140 | -109.23542 | 37017 ft | 475 kts | 159° |
| 2026-05-04 21:35 | 44.26157 | -109.19639 | 37017 ft | 474 kts | 159° |
| 2026-05-04 21:36 | 44.20172 | -109.15755 | 37018 ft | 474 kts | 159° |
| 2026-05-04 21:36 | 44.14186 | -109.11869 | 37017 ft | 475 kts | 159° |
| 2026-05-04 21:37 | 44.08198 | -109.07984 | 37011 ft | 475 kts | 159° |
| 2026-05-04 21:37 | 44.02203 | -109.04104 | 37011 ft | 475 kts | 159° |
| 2026-05-04 21:38 | 43.96251 | -109.00253 | 37008 ft | 474 kts | 160° |
| 2026-05-04 21:38 | 43.90270 | -108.96403 | 37014 ft | 473 kts | 160° |
| 2026-05-04 21:39 | 43.84310 | -108.92577 | 37005 ft | 471 kts | 160° |
| 2026-05-04 21:39 | 43.78364 | -108.88761 | 36998 ft | 470 kts | 160° |
| 2026-05-04 21:40 | 43.72429 | -108.84967 | 36990 ft | 470 kts | 160° |
| 2026-05-04 21:40 | 43.66535 | -108.81190 | 36983 ft | 470 kts | 160° |
| 2026-05-04 21:41 | 43.60565 | -108.77380 | 36980 ft | 469 kts | 161° |
| 2026-05-04 21:41 | 43.54674 | -108.73644 | 36976 ft | 469 kts | 161° |
| 2026-05-04 21:42 | 43.48746 | -108.69880 | 36970 ft | 469 kts | 161° |
| 2026-05-04 21:42 | 43.42818 | -108.66122 | 36963 ft | 469 kts | 161° |
| 2026-05-04 21:43 | 43.36894 | -108.62381 | 36960 ft | 469 kts | 161° |
| 2026-05-04 21:43 | 43.30967 | -108.58658 | 36957 ft | 468 kts | 161° |
| 2026-05-04 21:44 | 43.25032 | -108.54940 | 36948 ft | 468 kts | 161° |
| 2026-05-04 21:44 | 43.19114 | -108.51210 | 36947 ft | 468 kts | 161° |
| 2026-05-04 21:45 | 43.13184 | -108.47492 | 36943 ft | 468 kts | 161° |
| 2026-05-04 21:45 | 43.07261 | -108.43789 | 36941 ft | 468 kts | 161° |
| 2026-05-04 21:46 | 43.01385 | -108.40122 | 36940 ft | 467 kts | 161° |
| 2026-05-04 21:46 | 42.95469 | -108.36443 | 36940 ft | 467 kts | 161° |
| 2026-05-04 21:47 | 42.89558 | -108.32784 | 36940 ft | 467 kts | 162° |
| 2026-05-04 21:47 | 42.83657 | -108.29130 | 36940 ft | 466 kts | 162° |
| 2026-05-04 21:48 | 42.77764 | -108.25477 | 36941 ft | 465 kts | 162° |
| 2026-05-04 21:48 | 42.71873 | -108.21836 | 36942 ft | 464 kts | 162° |
| 2026-05-04 21:49 | 42.65992 | -108.18214 | 36944 ft | 463 kts | 162° |
| 2026-05-04 21:49 | 42.60123 | -108.14613 | 36937 ft | 463 kts | 162° |
| 2026-05-04 21:50 | 42.54261 | -108.11022 | 36936 ft | 462 kts | 162° |
| 2026-05-04 21:50 | 42.48445 | -108.07461 | 36937 ft | 462 kts | 162° |
| 2026-05-04 21:51 | 42.42600 | -108.03897 | 36931 ft | 461 kts | 163° |
| 2026-05-04 21:51 | 42.36753 | -108.00331 | 36934 ft | 461 kts | 163° |
| 2026-05-04 21:52 | 42.30888 | -107.96767 | 36937 ft | 462 kts | 163° |
| 2026-05-04 21:52 | 42.25027 | -107.93198 | 36947 ft | 461 kts | 163° |
| 2026-05-04 21:53 | 42.19168 | -107.89647 | 36953 ft | 462 kts | 163° |
| 2026-05-04 21:53 | 42.13321 | -107.86103 | 36946 ft | 460 kts | 163° |
| 2026-05-04 21:54 | 42.07480 | -107.82588 | 36942 ft | 461 kts | 163° |
| 2026-05-04 21:54 | 42.01635 | -107.79064 | 36914 ft | 460 kts | 163° |
| 2026-05-04 21:55 | 41.95808 | -107.75563 | 36938 ft | 458 kts | 164° |
| 2026-05-04 21:55 | 41.89982 | -107.72080 | 36939 ft | 458 kts | 163° |
| 2026-05-04 21:56 | 41.84174 | -107.68530 | 36930 ft | 462 kts | 158° |
| 2026-05-04 21:56 | 41.79004 | -107.63246 | 36944 ft | 483 kts | 139° |
| 2026-05-04 21:57 | 41.74505 | -107.56528 | 36947 ft | 485 kts | 138° |
| 2026-05-04 21:57 | 41.70000 | -107.49809 | 36945 ft | 485 kts | 138° |
| 2026-05-04 21:58 | 41.65474 | -107.43099 | 36943 ft | 485 kts | 139° |
| 2026-05-04 21:58 | 41.60954 | -107.36404 | 36929 ft | 484 kts | 139° |
| 2026-05-04 21:59 | 41.56426 | -107.29695 | 36906 ft | 488 kts | 139° |
| 2026-05-04 21:59 | 41.51865 | -107.22959 | 36932 ft | 489 kts | 139° |
| 2026-05-04 22:00 | 41.47292 | -107.16240 | 36933 ft | 490 kts | 139° |
| 2026-05-04 22:00 | 41.42737 | -107.09560 | 36933 ft | 490 kts | 139° |
| 2026-05-04 22:01 | 41.38151 | -107.02832 | 36932 ft | 491 kts | 139° |
| 2026-05-04 22:01 | 41.33554 | -106.96090 | 36936 ft | 492 kts | 139° |
| 2026-05-04 22:02 | 41.28945 | -106.89336 | 36941 ft | 493 kts | 140° |
| 2026-05-04 22:02 | 41.24324 | -106.82588 | 36942 ft | 494 kts | 140° |
| 2026-05-04 22:03 | 41.19681 | -106.75839 | 36945 ft | 495 kts | 140° |
| 2026-05-04 22:03 | 41.15028 | -106.69096 | 36950 ft | 495 kts | 140° |
| 2026-05-04 22:04 | 41.10362 | -106.62348 | 36957 ft | 496 kts | 140° |
| 2026-05-04 22:04 | 41.05699 | -106.55610 | 36960 ft | 497 kts | 140° |
| 2026-05-04 22:05 | 41.01022 | -106.48863 | 36967 ft | 497 kts | 140° |
| 2026-05-04 22:05 | 40.98672 | -106.45483 | 36826 ft | 500 kts | 140° |
| 2026-05-04 22:05 | 40.96354 | -106.42152 | 36578 ft | 498 kts | 140° |
| 2026-05-04 22:05 | 40.93974 | -106.38731 | 35924 ft | 501 kts | 140° |
| 2026-05-04 22:06 | 40.91626 | -106.35369 | 35021 ft | 506 kts | 139° |
| 2026-05-04 22:06 | 40.89230 | -106.31941 | 34104 ft | 510 kts | 138° |
| 2026-05-04 22:06 | 40.86823 | -106.28476 | 33051 ft | 516 kts | 136° |
| 2026-05-04 22:06 | 40.84638 | -106.24661 | 31999 ft | 524 kts | 127° |
| 2026-05-04 22:07 | 40.82870 | -106.20443 | 31324 ft | 522 kts | 117° |
| 2026-05-04 22:07 | 40.81392 | -106.16156 | 31130 ft | 506 kts | 117° |
| 2026-05-04 22:07 | 40.79920 | -106.11974 | 30613 ft | 499 kts | 118° |
| 2026-05-04 22:07 | 40.78445 | -106.07860 | 30109 ft | 493 kts | 118° |
| 2026-05-04 22:08 | 40.76980 | -106.03808 | 29623 ft | 487 kts | 118° |
| 2026-05-04 22:08 | 40.75528 | -105.99793 | 29093 ft | 480 kts | 118° |
| 2026-05-04 22:08 | 40.74103 | -105.95839 | 28545 ft | 476 kts | 118° |
| 2026-05-04 22:08 | 40.72696 | -105.91918 | 27989 ft | 470 kts | 117° |
| 2026-05-04 22:09 | 40.71309 | -105.88038 | 27449 ft | 465 kts | 117° |
| 2026-05-04 22:09 | 40.69940 | -105.84204 | 26939 ft | 460 kts | 117° |
| 2026-05-04 22:09 | 40.68584 | -105.80417 | 26416 ft | 455 kts | 117° |
| 2026-05-04 22:09 | 40.67241 | -105.76675 | 25878 ft | 450 kts | 117° |
| 2026-05-04 22:10 | 40.65908 | -105.72973 | 25420 ft | 444 kts | 117° |
| 2026-05-04 22:10 | 40.64612 | -105.69377 | 25024 ft | 437 kts | 117° |
| 2026-05-04 22:10 | 40.63315 | -105.65785 | 24654 ft | 433 kts | 117° |
| 2026-05-04 22:10 | 40.62023 | -105.62214 | 24190 ft | 429 kts | 117° |
| 2026-05-04 22:11 | 40.60743 | -105.58687 | 23753 ft | 425 kts | 117° |
| 2026-05-04 22:11 | 40.59473 | -105.55188 | 23314 ft | 421 kts | 117° |
| 2026-05-04 22:11 | 40.58213 | -105.51721 | 22880 ft | 419 kts | 117° |
| 2026-05-04 22:11 | 40.56963 | -105.48281 | 22430 ft | 415 kts | 117° |
| 2026-05-04 22:12 | 40.55724 | -105.44866 | 22023 ft | 412 kts | 117° |
| 2026-05-04 22:12 | 40.54507 | -105.41519 | 21640 ft | 398 kts | 117° |
| 2026-05-04 22:12 | 40.53325 | -105.38266 | 21335 ft | 395 kts | 117° |
| 2026-05-04 22:12 | 40.52142 | -105.35021 | 20870 ft | 393 kts | 117° |
| 2026-05-04 22:13 | 40.50960 | -105.31791 | 20357 ft | 390 kts | 118° |
| 2026-05-04 22:13 | 40.49788 | -105.28595 | 19879 ft | 387 kts | 117° |
| 2026-05-04 22:13 | 40.48623 | -105.25413 | 19381 ft | 385 kts | 118° |
| 2026-05-04 22:13 | 40.47483 | -105.22309 | 19055 ft | 378 kts | 118° |
| 2026-05-04 22:14 | 40.46234 | -105.19368 | 18817 ft | 359 kts | 128° |
| 2026-05-04 22:14 | 40.44634 | -105.16945 | 18329 ft | 346 kts | 141° |
| 2026-05-04 22:14 | 40.42747 | -105.15046 | 18090 ft | 340 kts | 149° |
| 2026-05-04 22:14 | 40.40811 | -105.13269 | 17836 ft | 339 kts | 149° |
| 2026-05-04 22:15 | 40.38890 | -105.11491 | 17587 ft | 337 kts | 148° |
| 2026-05-04 22:15 | 40.36980 | -105.09716 | 17335 ft | 336 kts | 148° |
| 2026-05-04 22:15 | 40.35075 | -105.07942 | 17085 ft | 335 kts | 148° |
| 2026-05-04 22:15 | 40.33178 | -105.06178 | 16835 ft | 333 kts | 148° |
| 2026-05-04 22:16 | 40.31291 | -105.04421 | 16584 ft | 333 kts | 148° |
| 2026-05-04 22:16 | 40.29407 | -105.02669 | 16334 ft | 331 kts | 148° |
| 2026-05-04 22:16 | 40.27529 | -105.00930 | 16079 ft | 330 kts | 148° |
| 2026-05-04 22:16 | 40.25658 | -104.99205 | 15829 ft | 329 kts | 148° |
| 2026-05-04 22:17 | 40.23785 | -104.97483 | 15572 ft | 327 kts | 148° |
| 2026-05-04 22:17 | 40.21928 | -104.95775 | 15331 ft | 326 kts | 148° |
| 2026-05-04 22:17 | 40.20076 | -104.94067 | 15070 ft | 325 kts | 148° |
| 2026-05-04 22:17 | 40.18259 | -104.92383 | 14820 ft | 324 kts | 147° |
| 2026-05-04 22:18 | 40.16467 | -104.90604 | 14573 ft | 323 kts | 144° |
| 2026-05-04 22:18 | 40.14717 | -104.88756 | 14317 ft | 322 kts | 143° |
| 2026-05-04 22:18 | 40.12994 | -104.86891 | 14063 ft | 321 kts | 143° |
| 2026-05-04 22:18 | 40.11280 | -104.85031 | 13809 ft | 320 kts | 143° |
| 2026-05-04 22:19 | 40.09562 | -104.83176 | 13563 ft | 320 kts | 143° |
| 2026-05-04 22:19 | 40.07847 | -104.81337 | 13316 ft | 319 kts | 143° |
| 2026-05-04 22:19 | 40.06735 | -104.80024 | 13144 ft | 319 kts | 135° |
| 2026-05-04 22:19 | 40.05358 | -104.77748 | 12894 ft | 320 kts | 127° |
| 2026-05-04 22:20 | 40.04073 | -104.75384 | 12642 ft | 319 kts | 127° |
| 2026-05-04 22:20 | 40.02800 | -104.73064 | 12395 ft | 318 kts | 127° |
| 2026-05-04 22:20 | 40.01515 | -104.70732 | 12144 ft | 316 kts | 127° |
| 2026-05-04 22:20 | 40.00228 | -104.68406 | 11907 ft | 316 kts | 127° |
| 2026-05-04 22:21 | 39.98943 | -104.66085 | 12008 ft | 317 kts | 128° |
| 2026-05-04 22:21 | 39.97650 | -104.63743 | 12007 ft | 318 kts | 127° |
| 2026-05-04 22:21 | 39.96361 | -104.61400 | 12014 ft | 318 kts | 127° |
| 2026-05-04 22:21 | 39.95071 | -104.59052 | 12017 ft | 318 kts | 127° |
| 2026-05-04 22:22 | 39.93783 | -104.56701 | 12018 ft | 319 kts | 127° |
| 2026-05-04 22:22 | 39.92495 | -104.54349 | 11948 ft | 320 kts | 128° |
| 2026-05-04 22:22 | 39.91010 | -104.52239 | 11693 ft | 314 kts | 143° |
| 2026-05-04 22:22 | 39.89166 | -104.50779 | 11442 ft | 309 kts | 160° |
| 2026-05-04 22:23 | 39.87117 | -104.50051 | 11191 ft | 304 kts | 176° |
| 2026-05-04 22:23 | 39.85030 | -104.49989 | 10941 ft | 297 kts | 185° |
| 2026-05-04 22:23 | 39.83032 | -104.50027 | 10977 ft | 273 kts | 184° |
| 2026-05-04 22:23 | 39.81185 | -104.50055 | 11024 ft | 262 kts | 185° |
| 2026-05-04 22:24 | 39.79404 | -104.50086 | 11008 ft | 259 kts | 185° |
| 2026-05-04 22:24 | 39.77577 | -104.50121 | 10585 ft | 265 kts | 185° |
| 2026-05-04 22:24 | 39.75718 | -104.50154 | 10193 ft | 265 kts | 185° |
| 2026-05-04 22:24 | 39.73917 | -104.50281 | 9864 ft | 252 kts | 195° |
| 2026-05-04 22:25 | 39.72315 | -104.51007 | 9557 ft | 236 kts | 214° |
| 2026-05-04 22:25 | 39.71043 | -104.52243 | 9269 ft | 222 kts | 231° |
| 2026-05-04 22:25 | 39.70150 | -104.53789 | 9015 ft | 208 kts | 246° |
| 2026-05-04 22:25 | 39.69639 | -104.55473 | 8760 ft | 194 kts | 260° |
| 2026-05-04 22:26 | 39.69476 | -104.57173 | 8531 ft | 186 kts | 272° |
| 2026-05-04 22:26 | 39.69617 | -104.58785 | 8347 ft | 176 kts | 283° |
| 2026-05-04 22:26 | 39.70014 | -104.60262 | 8106 ft | 173 kts | 295° |
| 2026-05-04 22:26 | 39.70634 | -104.61558 | 7869 ft | 164 kts | 306° |
| 2026-05-04 22:27 | 39.71401 | -104.62593 | 7681 ft | 157 kts | 316° |
| 2026-05-04 22:27 | 39.72298 | -104.63399 | 7494 ft | 157 kts | 327° |
| 2026-05-04 22:27 | 39.73294 | -104.63955 | 7308 ft | 154 kts | 342° |
| 2026-05-04 22:27 | 39.74349 | -104.64240 | 7089 ft | 163 kts | 360° |
| 2026-05-04 22:28 | 39.75502 | -104.64269 | 6903 ft | 166 kts | 9° |
| 2026-05-04 22:28 | 39.76637 | -104.64257 | 6706 ft | 157 kts | 1° |
| 2026-05-04 22:28 | 39.77676 | -104.64245 | 6484 ft | 146 kts | 1° |
| 2026-05-04 22:28 | 39.78668 | -104.64232 | 6290 ft | 142 kts | 1° |
| 2026-05-04 22:29 | 39.79647 | -104.64220 | 6096 ft | 137 kts | 359° |
| 2026-05-04 22:29 | 39.80590 | -104.64209 | 5914 ft | 140 kts | 0° |
| 2026-05-04 22:29 | 39.81547 | -104.64197 | 5699 ft | 138 kts | 6° |
| 2026-05-04 22:29 | 39.82495 | -104.64173 | 5556 ft | 133 kts | 12° |
| 2026-05-04 22:30 | 39.83434 | -104.64173 | 5376 ft | 133 kts | 1° |
| 2026-05-04 22:30 | 39.84251 | -104.64155 | 5365 ft | 95 kts | 0° |
| 2026-05-04 22:30 | 39.84742 | -104.64150 | 5363 ft | 46 kts | 0° |
| 2026-05-04 22:30 | 39.84998 | -104.64149 | 5360 ft | 35 kts | 358° |
| 2026-05-04 22:31 | 39.85227 | -104.64238 | 5358 ft | 34 kts | 332° |
| 2026-05-04 22:31 | 39.85415 | -104.64356 | 5356 ft | 29 kts | 355° |
| 2026-05-04 22:31 | 39.85607 | -104.64356 | 5354 ft | 20 kts | 356° |
| 2026-05-04 22:31 | 39.85665 | -104.64461 | 5353 ft | 18 kts | 271° |
| 2026-05-04 22:32 | 39.85667 | -104.64562 | 5355 ft | 0 kts | 271° |
| 2026-05-04 22:32 | 39.85667 | -104.64609 | 5356 ft | 9 kts | 269° |
| 2026-05-04 22:33 | 39.85667 | -104.64687 | 5359 ft | 8 kts | 271° |
| 2026-05-04 22:33 | 39.85668 | -104.64770 | 5361 ft | 11 kts | 270° |
| 2026-05-04 22:33 | 39.85669 | -104.64897 | 5365 ft | 17 kts | 270° |
| 2026-05-04 22:33 | 39.85670 | -104.65043 | 5367 ft | 16 kts | 270° |
| 2026-05-04 22:34 | 39.85671 | -104.65179 | 5373 ft | 14 kts | 271° |
| 2026-05-04 22:34 | 39.85673 | -104.65304 | 5377 ft | 13 kts | 270° |
| 2026-05-04 22:34 | 39.85672 | -104.65439 | 5379 ft | 16 kts | 270° |
| 2026-05-04 22:34 | 39.85674 | -104.65582 | 5385 ft | 15 kts | 271° |
| 2026-05-04 22:35 | 39.85676 | -104.65716 | 5384 ft | 14 kts | 271° |
| 2026-05-04 22:35 | 39.85677 | -104.65840 | 5390 ft | 13 kts | 268° |
| 2026-05-04 22:35 | 39.85676 | -104.65963 | 5388 ft | 15 kts | 272° |
| 2026-05-04 22:35 | 39.85678 | -104.66103 | 5394 ft | 16 kts | 270° |
| 2026-05-04 22:36 | 39.85645 | -104.66232 | 5388 ft | 17 kts | 205° |
| 2026-05-04 22:36 | 39.85533 | -104.66240 | 5397 ft | 15 kts | 180° |
| 2026-05-04 22:36 | 39.85425 | -104.66239 | 5391 ft | 16 kts | 180° |
| 2026-05-04 22:36 | 39.85326 | -104.66244 | 5397 ft | 13 kts | 196° |
| 2026-05-04 22:37 | 39.85294 | -104.66355 | 5394 ft | 16 kts | 271° |
| 2026-05-04 22:37 | 39.85286 | -104.66526 | 5383 ft | 21 kts | 252° |
| 2026-05-04 22:37 | 39.85274 | -104.66733 | 5383 ft | 25 kts | 271° |
| 2026-05-04 22:37 | 39.85276 | -104.66967 | 5383 ft | 26 kts | 270° |
| 2026-05-04 22:38 | 39.85264 | -104.67198 | 5383 ft | 26 kts | 272° |
| 2026-05-04 22:38 | 39.85268 | -104.67444 | 5383 ft | 28 kts | 270° |
| 2026-05-04 22:38 | 39.85268 | -104.67652 | 5383 ft | 22 kts | 271° |
| 2026-05-04 22:38 | 39.85271 | -104.67847 | 5383 ft | 21 kts | 271° |
| 2026-05-04 22:39 | 39.85271 | -104.67983 | 5383 ft | 10 kts | 270° |
| 2026-05-04 22:39 | 39.85297 | -104.68039 | 5383 ft | 7 kts | 342° |
| 2026-05-04 22:39 | 39.85331 | -104.68040 | 5383 ft | 4 kts | 2° |
| 2026-05-04 22:39 | 39.85335 | -104.68040 | 5383 ft | 0 kts | 2° |